Time;durP1;ratioP1;P1;durP2;ratioP2;P2;SDS_P1;SDS_P2;PMS_P1;PMS_P2;Temp;Humidity;BMP_temperature;BMP_pressure;BME280_temperature;BME280_humidity;BME280_pressure;Samples;Min_cycle;Max_cycle;Signal;HPM_P1;HPM_P2
2022/12/09 00:01:14;;;;;;;27.33;16.00;;;;;;;;;;5037418;28;20454;-63
2022/12/09 00:03:42;;;;;;;29.23;15.30;;;;;;;;;;5037230;28;20840;-63
2022/12/09 00:06:12;;;;;;;26.57;14.90;;;;;;;;;;5037626;28;20452;-63
2022/12/09 00:08:41;;;;;;;28.53;15.77;;;;;;;;;;5037312;28;20482;-63
2022/12/09 00:11:09;;;;;;;29.87;16.97;;;;;;;;;;5037455;28;20442;-63
2022/12/09 00:13:37;;;;;;;28.43;15.87;;;;;;;;;;5037925;28;20549;-63
2022/12/09 00:16:08;;;;;;;28.60;16.57;;;;;;;;;;5037313;28;20442;-64
2022/12/09 00:18:36;;;;;;;30.40;15.80;;;;;;;;;;5038393;28;20442;-63
2022/12/09 00:21:13;;;;;;;29.37;15.20;;;;;;;;;;5041101;28;20810;-64
2022/12/09 00:23:41;;;;;;;28.63;14.37;;;;;;;;;;5040826;28;20494;-64
2022/12/09 00:26:10;;;;;;;27.20;14.70;;;;;;;;;;5040119;28;20446;-63
2022/12/09 00:28:38;;;;;;;25.37;14.60;;;;;;;;;;5040132;28;20517;-64
2022/12/09 00:31:07;;;;;;;26.13;14.27;;;;;;;;;;5036301;28;20458;-64
2022/12/09 00:33:36;;;;;;;28.53;15.77;;;;;;;;;;5041018;28;20539;-64
2022/12/09 00:36:05;;;;;;;26.77;15.73;;;;;;;;;;5040841;28;20441;-63
2022/12/09 00:38:33;;;;;;;25.53;13.97;;;;;;;;;;5040519;28;20549;-63
2022/12/09 00:41:01;;;;;;;27.50;15.33;;;;;;;;;;5040628;28;20476;-64
2022/12/09 00:43:29;;;;;;;27.33;13.60;;;;;;;;;;5040865;28;20498;-64
2022/12/09 00:45:57;;;;;;;26.40;14.37;;;;;;;;;;5040664;28;20960;-64
2022/12/09 00:48:27;;;;;;;22.30;13.60;;;;;;;;;;5040400;28;20989;-64
2022/12/09 00:50:55;;;;;;;21.67;13.03;;;;;;;;;;5040785;28;20442;-64
2022/12/09 00:53:23;;;;;;;23.83;12.67;;;;;;;;;;5040172;28;20958;-63
2022/12/09 00:55:51;;;;;;;17.20;10.73;;;;;;;;;;5040305;28;20449;-64
2022/12/09 00:58:19;;;;;;;18.83;11.60;;;;;;;;;;5039841;28;20454;-64
2022/12/09 01:00:47;;;;;;;24.23;13.53;;;;;;;;;;5040393;28;20500;-63
2022/12/09 01:03:16;;;;;;;18.03;11.07;;;;;;;;;;5040310;28;20966;-64
2022/12/09 01:05:46;;;;;;;16.10;10.10;;;;;;;;;;5040556;28;20449;-64
2022/12/09 01:08:15;;;;;;;19.63;11.60;;;;;;;;;;5040052;28;20481;-64
2022/12/09 01:10:43;;;;;;;23.53;11.80;;;;;;;;;;5040423;28;20442;-64
2022/12/09 01:13:12;;;;;;;24.00;12.83;;;;;;;;;;5039974;28;20446;-66
2022/12/09 01:15:41;;;;;;;21.07;12.70;;;;;;;;;;5040373;28;20453;-64
2022/12/09 01:18:10;;;;;;;18.53;11.60;;;;;;;;;;5040152;28;20446;-63
2022/12/09 01:20:38;;;;;;;19.83;10.37;;;;;;;;;;5040028;28;20446;-64
2022/12/09 01:23:08;;;;;;;21.17;13.73;;;;;;;;;;5039860;28;20456;-64
2022/12/09 01:25:37;;;;;;;22.20;12.77;;;;;;;;;;5039954;28;20442;-64
2022/12/09 01:28:06;;;;;;;22.60;12.07;;;;;;;;;;5038876;28;20537;-64
2022/12/09 01:30:34;;;;;;;21.93;11.83;;;;;;;;;;5039817;28;20478;-64
2022/12/09 01:33:02;;;;;;;21.33;12.30;;;;;;;;;;5039828;28;20449;-64
2022/12/09 01:35:30;;;;;;;22.40;12.50;;;;;;;;;;5039672;28;20896;-63
2022/12/09 01:37:58;;;;;;;23.17;11.40;;;;;;;;;;5039494;28;20849;-64
2022/12/09 01:40:27;;;;;;;21.70;12.13;;;;;;;;;;5039988;28;20461;-64
2022/12/09 01:42:56;;;;;;;22.70;11.87;;;;;;;;;;5039895;28;20455;-63
2022/12/09 01:45:38;;;;;;;22.23;12.43;;;;;;;;;;5039732;28;20473;-64
2022/12/09 01:48:07;;;;;;;19.13;12.27;;;;;;;;;;5039511;28;20442;-63
2022/12/09 01:50:36;;;;;;;28.30;13.47;;;;;;;;;;5039335;28;20532;-63
2022/12/09 01:53:05;;;;;;;19.53;11.63;;;;;;;;;;5039482;28;20449;-64
2022/12/09 01:55:35;;;;;;;22.90;12.87;;;;;;;;;;5039573;28;20810;-64
2022/12/09 01:58:03;;;;;;;24.73;13.03;;;;;;;;;;5036970;28;20977;-64
2022/12/09 02:00:31;;;;;;;22.10;12.40;;;;;;;;;;5039143;28;20809;-64
2022/12/09 02:03:00;;;;;;;22.40;12.53;;;;;;;;;;5039219;28;20438;-64
2022/12/09 02:05:29;;;;;;;26.90;13.17;;;;;;;;;;5039320;28;20481;-64
2022/12/09 02:07:57;;;;;;;20.20;11.90;;;;;;;;;;5039139;28;20491;-64
2022/12/09 02:10:26;;;;;;;20.00;12.30;;;;;;;;;;5039193;28;20486;-64
2022/12/09 02:13:01;;;;;;;24.77;12.57;;;;;;;;;;5039181;28;20450;-64
2022/12/09 02:15:33;;;;;;;21.60;12.50;;;;;;;;;;5038930;28;20549;-63
2022/12/09 02:18:02;;;;;;;18.10;11.07;;;;;;;;;;5038787;28;20446;-63
2022/12/09 02:20:34;;;;;;;20.17;11.77;;;;;;;;;;5038943;28;20485;-64
2022/12/09 02:23:05;;;;;;;22.47;12.03;;;;;;;;;;5038780;28;20470;-64
2022/12/09 02:25:37;;;;;;;18.67;10.93;;;;;;;;;;5038971;28;20492;-64
2022/12/09 02:28:18;;;;;;;17.13;10.77;;;;;;;;;;5037200;28;20462;-64
2022/12/09 02:30:50;;;;;;;18.47;10.67;;;;;;;;;;5038567;28;20486;-64
2022/12/09 02:33:26;;;;;;;17.97;10.33;;;;;;;;;;5038493;28;20804;-64
2022/12/09 02:35:57;;;;;;;18.10;10.17;;;;;;;;;;5038725;28;20468;-64
2022/12/09 02:38:26;;;;;;;17.63;10.53;;;;;;;;;;5038333;28;20806;-64
2022/12/09 02:40:58;;;;;;;18.00;10.00;;;;;;;;;;5037668;28;20548;-64
2022/12/09 02:43:30;;;;;;;18.10;9.53;;;;;;;;;;5038383;28;20501;-64
2022/12/09 02:45:59;;;;;;;14.63;8.80;;;;;;;;;;5038629;28;20442;-63
2022/12/09 02:48:29;;;;;;;13.70;9.00;;;;;;;;;;5037569;28;20469;-64
2022/12/09 02:51:01;;;;;;;14.93;8.30;;;;;;;;;;5037903;28;20549;-64
2022/12/09 02:53:29;;;;;;;17.87;8.70;;;;;;;;;;5038335;28;20467;-64
2022/12/09 02:55:58;;;;;;;16.17;8.40;;;;;;;;;;5037097;28;20508;-64
2022/12/09 02:58:26;;;;;;;13.23;8.80;;;;;;;;;;5038120;28;20606;-64
2022/12/09 03:00:55;;;;;;;13.80;8.23;;;;;;;;;;5038137;28;20516;-64
2022/12/09 03:03:23;;;;;;;16.27;9.37;;;;;;;;;;5037967;28;20446;-64
2022/12/09 03:05:56;;;;;;;16.07;8.57;;;;;;;;;;5038339;28;20446;-64
2022/12/09 03:08:31;;;;;;;15.33;9.13;;;;;;;;;;5037989;28;20474;-64
2022/12/09 03:11:00;;;;;;;16.73;9.00;;;;;;;;;;5038077;28;20485;-64
2022/12/09 03:13:39;;;;;;;12.70;7.77;;;;;;;;;;5038095;28;20466;-64
2022/12/09 03:16:10;;;;;;;11.23;7.87;;;;;;;;;;5038179;28;20484;-64
2022/12/09 03:18:40;;;;;;;13.23;7.90;;;;;;;;;;5038182;28;20442;-64
2022/12/09 03:21:09;;;;;;;14.27;8.63;;;;;;;;;;5037925;28;20465;-64
2022/12/09 03:23:38;;;;;;;11.57;7.60;;;;;;;;;;5037609;28;20503;-64
2022/12/09 03:26:06;;;;;;;13.33;9.33;;;;;;;;;;5036821;28;20462;-64
2022/12/09 03:28:37;;;;;;;14.77;8.57;;;;;;;;;;5038020;28;20838;-64
2022/12/09 03:31:08;;;;;;;11.93;7.77;;;;;;;;;;5037598;28;20513;-64
2022/12/09 03:33:36;;;;;;;16.53;9.20;;;;;;;;;;5037701;28;21012;-64
2022/12/09 03:36:06;;;;;;;16.57;8.73;;;;;;;;;;5037577;28;20452;-64
2022/12/09 03:38:36;;;;;;;14.93;8.03;;;;;;;;;;5037760;28;20784;-63
2022/12/09 03:41:07;;;;;;;11.43;7.47;;;;;;;;;;5037328;28;20813;-64
2022/12/09 03:43:37;;;;;;;12.40;8.30;;;;;;;;;;5037839;28;20466;-64
2022/12/09 03:46:06;;;;;;;11.00;7.77;;;;;;;;;;5037868;28;20442;-64
2022/12/09 03:48:34;;;;;;;12.47;7.40;;;;;;;;;;5037452;28;20815;-64
2022/12/09 03:51:05;;;;;;;15.40;8.40;;;;;;;;;;5037493;28;20485;-64
2022/12/09 03:53:36;;;;;;;14.20;8.90;;;;;;;;;;5038654;28;20473;-64
2022/12/09 03:56:10;;;;;;;12.77;7.10;;;;;;;;;;5041049;28;20497;-64
2022/12/09 03:58:40;;;;;;;14.50;6.97;;;;;;;;;;5041549;28;20448;-64
2022/12/09 04:01:09;;;;;;;11.87;7.57;;;;;;;;;;5041511;28;20816;-64
2022/12/09 04:03:37;;;;;;;10.93;7.37;;;;;;;;;;5041574;28;20813;-64
2022/12/09 04:06:06;;;;;;;13.80;7.53;;;;;;;;;;5041529;28;20457;-64
2022/12/09 04:08:34;;;;;;;9.60;6.93;;;;;;;;;;5041196;28;20474;-64
2022/12/09 04:11:03;;;;;;;13.77;8.43;;;;;;;;;;5041147;28;21068;-64
2022/12/09 04:13:32;;;;;;;11.57;6.83;;;;;;;;;;5041178;28;20466;-64
2022/12/09 04:16:01;;;;;;;14.70;8.20;;;;;;;;;;5041229;28;20446;-64
2022/12/09 04:18:29;;;;;;;11.93;7.10;;;;;;;;;;5041139;28;20442;-64
2022/12/09 04:20:57;;;;;;;11.43;7.10;;;;;;;;;;5041083;28;20446;-64
2022/12/09 04:23:25;;;;;;;10.67;6.73;;;;;;;;;;5041050;28;20442;-64
2022/12/09 04:25:53;;;;;;;10.57;7.00;;;;;;;;;;5040124;28;20465;-64
2022/12/09 04:28:21;;;;;;;8.43;6.23;;;;;;;;;;5040915;28;20446;-64
2022/12/09 04:30:50;;;;;;;9.67;6.50;;;;;;;;;;5041130;28;20518;-64
2022/12/09 04:33:19;;;;;;;8.60;5.80;;;;;;;;;;5040809;28;20816;-64
2022/12/09 04:35:47;;;;;;;7.03;5.43;;;;;;;;;;5040725;28;20450;-64
2022/12/09 04:38:15;;;;;;;8.43;5.30;;;;;;;;;;5040794;28;20454;-64
2022/12/09 04:40:44;;;;;;;8.93;5.67;;;;;;;;;;5034130;28;20465;-64
2022/12/09 04:43:12;;;;;;;8.00;5.73;;;;;;;;;;5029083;28;20457;-64
2022/12/09 04:45:40;;;;;;;10.03;5.57;;;;;;;;;;5031026;28;20469;-64
2022/12/09 04:48:10;;;;;;;9.00;6.00;;;;;;;;;;5033938;28;20442;-64
2022/12/09 04:50:40;;;;;;;10.17;7.10;;;;;;;;;;5029013;28;20482;-64
2022/12/09 04:53:08;;;;;;;9.97;6.03;;;;;;;;;;5022176;28;20450;-63
2022/12/09 04:55:37;;;;;;;11.70;6.87;;;;;;;;;;5026265;28;20445;-64
2022/12/09 04:58:05;;;;;;;7.80;6.07;;;;;;;;;;5022613;28;20436;-64
2022/12/09 05:00:33;;;;;;;11.17;6.80;;;;;;;;;;5023252;28;20470;-64
2022/12/09 05:03:01;;;;;;;11.63;6.70;;;;;;;;;;5022405;28;20446;-64
2022/12/09 05:05:31;;;;;;;9.97;6.63;;;;;;;;;;5021795;28;21435;-64
2022/12/09 05:08:00;;;;;;;9.50;6.23;;;;;;;;;;5021220;28;21185;-64
2022/12/09 05:10:29;;;;;;;12.43;6.50;;;;;;;;;;5022574;28;20479;-64
2022/12/09 05:12:57;;;;;;;8.50;6.57;;;;;;;;;;5021224;28;20435;-64
2022/12/09 05:15:26;;;;;;;9.60;6.60;;;;;;;;;;5024264;28;20912;-64
2022/12/09 05:17:54;;;;;;;8.17;6.10;;;;;;;;;;5030929;28;20458;-63
2022/12/09 05:20:26;;;;;;;11.73;6.83;;;;;;;;;;5031223;28;20450;-64
2022/12/09 05:22:56;;;;;;;12.43;7.90;;;;;;;;;;5031100;28;20509;-64
2022/12/09 05:25:24;;;;;;;8.93;6.47;;;;;;;;;;5027589;28;20469;-64
2022/12/09 05:27:52;;;;;;;8.77;6.13;;;;;;;;;;5036154;28;20450;-64
2022/12/09 05:30:20;;;;;;;10.30;7.00;;;;;;;;;;5040010;28;20450;-64
2022/12/09 05:32:49;;;;;;;11.13;6.73;;;;;;;;;;5036863;28;20481;-64
2022/12/09 05:35:17;;;;;;;10.03;7.07;;;;;;;;;;5030932;28;20477;-65
2022/12/09 05:37:45;;;;;;;10.00;7.03;;;;;;;;;;5033837;28;20466;-65
2022/12/09 05:40:15;;;;;;;12.10;7.03;;;;;;;;;;5039800;28;20450;-65
2022/12/09 05:42:43;;;;;;;12.13;7.40;;;;;;;;;;5038824;28;20539;-64
2022/12/09 05:45:11;;;;;;;12.37;8.23;;;;;;;;;;5039440;28;20490;-64
2022/12/09 05:47:40;;;;;;;10.27;7.83;;;;;;;;;;5039520;28;20453;-64
2022/12/09 05:50:09;;;;;;;10.60;7.20;;;;;;;;;;5039696;28;20518;-64
2022/12/09 05:52:39;;;;;;;10.30;7.17;;;;;;;;;;5039072;28;20492;-64
2022/12/09 05:55:08;;;;;;;11.33;7.40;;;;;;;;;;5039517;28;20549;-64
2022/12/09 05:57:38;;;;;;;12.30;7.63;;;;;;;;;;5039452;28;20473;-64
2022/12/09 06:00:07;;;;;;;8.97;6.37;;;;;;;;;;5036556;28;20942;-64
2022/12/09 06:02:36;;;;;;;12.40;7.70;;;;;;;;;;5030451;28;20537;-64
2022/12/09 06:05:05;;;;;;;10.57;6.63;;;;;;;;;;5035799;28;20478;-64
2022/12/09 06:07:33;;;;;;;9.90;6.07;;;;;;;;;;5035978;28;20454;-65
2022/12/09 06:10:02;;;;;;;11.23;6.93;;;;;;;;;;5037093;28;20459;-63
2022/12/09 06:12:31;;;;;;;10.47;7.23;;;;;;;;;;5046275;28;21075;-64
2022/12/09 06:15:00;;;;;;;10.33;6.93;;;;;;;;;;5038804;28;20470;-64
2022/12/09 06:17:28;;;;;;;11.37;6.70;;;;;;;;;;5036745;28;20462;-63
2022/12/09 06:19:57;;;;;;;7.90;6.13;;;;;;;;;;5037932;28;20458;-63
2022/12/09 06:22:25;;;;;;;12.53;6.20;;;;;;;;;;5038040;28;20813;-62
2022/12/09 06:24:55;;;;;;;9.70;7.27;;;;;;;;;;5037902;28;20466;-63
2022/12/09 06:27:24;;;;;;;11.53;5.77;;;;;;;;;;5038252;28;20813;-63
2022/12/09 06:29:52;;;;;;;9.13;6.63;;;;;;;;;;5038343;28;20442;-63
2022/12/09 06:32:22;;;;;;;8.97;5.90;;;;;;;;;;5037596;28;20514;-63
2022/12/09 06:34:50;;;;;;;13.17;7.03;;;;;;;;;;5038484;28;20466;-62
2022/12/09 06:37:19;;;;;;;9.00;6.10;;;;;;;;;;5038456;28;20453;-62
2022/12/09 06:39:47;;;;;;;7.33;5.50;;;;;;;;;;5025690;28;20520;-62
2022/12/09 06:42:16;;;;;;;10.77;6.50;;;;;;;;;;5038149;28;20474;-63
2022/12/09 06:44:44;;;;;;;10.13;6.20;;;;;;;;;;5037951;28;20465;-63
2022/12/09 06:47:12;;;;;;;11.53;6.33;;;;;;;;;;5038367;28;20454;-63
2022/12/09 06:49:42;;;;;;;9.90;5.93;;;;;;;;;;5038467;28;20454;-62
2022/12/09 06:52:11;;;;;;;8.47;5.53;;;;;;;;;;5037788;28;21059;-62
2022/12/09 06:54:39;;;;;;;7.33;5.83;;;;;;;;;;5038200;28;20468;-63
2022/12/09 06:57:07;;;;;;;8.27;5.40;;;;;;;;;;5038205;28;20507;-62
2022/12/09 06:59:35;;;;;;;9.50;5.73;;;;;;;;;;5038242;28;20449;-62
2022/12/09 07:02:03;;;;;;;10.67;6.27;;;;;;;;;;5037983;28;20949;-63
2022/12/09 07:04:32;;;;;;;8.70;5.93;;;;;;;;;;5038117;28;20493;-63
2022/12/09 07:07:02;;;;;;;7.60;5.50;;;;;;;;;;5037683;28;20980;-62
2022/12/09 07:09:30;;;;;;;9.20;6.87;;;;;;;;;;5037204;28;20918;-62
2022/12/09 07:11:59;;;;;;;10.73;6.13;;;;;;;;;;5036473;28;20560;-62
2022/12/09 07:14:27;;;;;;;8.30;5.73;;;;;;;;;;5037707;28;21000;-62
2022/12/09 07:16:55;;;;;;;9.37;6.63;;;;;;;;;;5037593;28;20790;-62
2022/12/09 07:19:24;;;;;;;8.30;5.97;;;;;;;;;;5037786;28;21027;-62
2022/12/09 07:21:52;;;;;;;8.67;5.53;;;;;;;;;;5037666;28;20500;-62
2022/12/09 07:24:22;;;;;;;9.03;5.97;;;;;;;;;;5037653;28;20554;-62
2022/12/09 07:26:50;;;;;;;8.77;5.50;;;;;;;;;;5037603;28;20452;-62
2022/12/09 07:29:18;;;;;;;11.70;7.20;;;;;;;;;;5037837;28;20474;-63
2022/12/09 07:31:47;;;;;;;8.87;5.80;;;;;;;;;;5037535;28;20482;-63
2022/12/09 07:34:16;;;;;;;10.03;6.30;;;;;;;;;;5037719;28;20462;-63
2022/12/09 07:36:45;;;;;;;8.83;5.53;;;;;;;;;;5034327;28;20492;-63
2022/12/09 07:39:14;;;;;;;8.57;6.03;;;;;;;;;;5029638;28;20456;-63
2022/12/09 07:41:44;;;;;;;9.40;6.27;;;;;;;;;;5037098;28;20997;-63
2022/12/09 07:44:12;;;;;;;6.57;5.40;;;;;;;;;;5037669;28;20809;-63
2022/12/09 07:46:41;;;;;;;7.00;5.33;;;;;;;;;;5035654;28;20895;-63
2022/12/09 07:49:10;;;;;;;10.07;6.03;;;;;;;;;;5037721;28;20449;-62
2022/12/09 07:51:38;;;;;;;10.97;6.50;;;;;;;;;;5037174;28;20450;-63
2022/12/09 07:54:07;;;;;;;18.83;9.63;;;;;;;;;;5037613;28;20524;-62
2022/12/09 07:56:35;;;;;;;11.30;6.07;;;;;;;;;;5037426;28;20453;-63
2022/12/09 07:59:05;;;;;;;6.93;5.63;;;;;;;;;;5037694;28;20442;-62
2022/12/09 08:01:34;;;;;;;7.90;4.93;;;;;;;;;;5037360;28;20469;-62
2022/12/09 08:04:04;;;;;;;10.77;5.67;;;;;;;;;;5037486;28;20462;-62
2022/12/09 08:06:33;;;;;;;6.63;5.53;;;;;;;;;;5036273;28;20588;-63
2022/12/09 08:09:03;;;;;;;8.07;5.87;;;;;;;;;;5037716;28;20458;-63
2022/12/09 08:11:32;;;;;;;9.43;5.40;;;;;;;;;;5037457;28;20453;-61
2022/12/09 08:14:02;;;;;;;6.50;5.73;;;;;;;;;;5037285;28;20494;-62
2022/12/09 08:16:40;;;;;;;9.97;5.63;;;;;;;;;;5037614;28;20446;-63
2022/12/09 08:19:09;;;;;;;8.90;5.73;;;;;;;;;;5037283;28;20473;-63
2022/12/09 08:21:38;;;;;;;7.47;5.80;;;;;;;;;;5036874;28;20470;-62
2022/12/09 08:24:07;;;;;;;9.23;6.57;;;;;;;;;;5037258;28;20466;-62
2022/12/09 08:26:36;;;;;;;8.60;6.00;;;;;;;;;;5037361;28;20450;-61
2022/12/09 08:29:06;;;;;;;10.50;6.57;;;;;;;;;;5037188;28;20854;-61
2022/12/09 08:31:35;;;;;;;9.63;6.17;;;;;;;;;;5037279;28;20442;-62
2022/12/09 08:34:10;;;;;;;10.33;6.63;;;;;;;;;;5036846;28;20486;-62
2022/12/09 08:36:39;;;;;;;9.00;6.23;;;;;;;;;;5036217;28;20540;-62
2022/12/09 08:39:08;;;;;;;10.00;6.57;;;;;;;;;;5037638;28;20443;-62
2022/12/09 08:41:36;;;;;;;10.63;6.87;;;;;;;;;;5040614;28;20469;-63
2022/12/09 08:44:07;;;;;;;12.67;7.40;;;;;;;;;;5040498;28;20520;-62
2022/12/09 08:46:36;;;;;;;9.80;6.73;;;;;;;;;;5040820;28;20446;-62
2022/12/09 08:49:05;;;;;;;10.10;6.57;;;;;;;;;;5040649;28;20457;-63
2022/12/09 08:51:35;;;;;;;12.80;7.03;;;;;;;;;;5040178;28;20442;-63
2022/12/09 08:54:04;;;;;;;9.17;6.77;;;;;;;;;;5040176;28;21177;-63
2022/12/09 08:56:33;;;;;;;12.23;7.10;;;;;;;;;;5040342;28;20836;-63
2022/12/09 08:59:02;;;;;;;11.27;7.90;;;;;;;;;;5040261;28;20450;-63
2022/12/09 09:01:33;;;;;;;12.27;6.73;;;;;;;;;;5040416;28;20457;-63
2022/12/09 09:04:03;;;;;;;10.97;7.23;;;;;;;;;;5038867;28;20493;-63
2022/12/09 09:06:32;;;;;;;14.97;8.00;;;;;;;;;;5038544;28;20459;-63
2022/12/09 09:09:02;;;;;;;9.93;6.77;;;;;;;;;;5040116;28;20454;-63
2022/12/09 09:11:30;;;;;;;11.77;6.37;;;;;;;;;;5040341;28;20448;-62
2022/12/09 09:13:59;;;;;;;9.67;7.10;;;;;;;;;;5039986;28;20496;-62
2022/12/09 09:16:27;;;;;;;10.93;6.70;;;;;;;;;;5039673;28;20460;-63
2022/12/09 09:18:56;;;;;;;10.00;7.00;;;;;;;;;;5040225;28;20450;-63
2022/12/09 09:21:25;;;;;;;10.80;6.47;;;;;;;;;;5039726;28;20453;-63
2022/12/09 09:23:54;;;;;;;9.90;6.30;;;;;;;;;;5039842;28;20958;-63
2022/12/09 09:26:26;;;;;;;9.93;6.40;;;;;;;;;;5040044;28;20449;-63
2022/12/09 09:28:55;;;;;;;9.57;6.80;;;;;;;;;;5040351;28;20529;-63
2022/12/09 09:31:24;;;;;;;9.90;6.10;;;;;;;;;;5039869;28;20446;-63
2022/12/09 09:33:53;;;;;;;9.93;7.40;;;;;;;;;;5039890;28;20490;-63
2022/12/09 09:36:22;;;;;;;11.00;7.47;;;;;;;;;;5038571;28;20450;-63
2022/12/09 09:38:53;;;;;;;7.70;6.13;;;;;;;;;;5035945;28;20458;-63
2022/12/09 09:41:27;;;;;;;10.63;6.53;;;;;;;;;;5039520;28;20474;-63
2022/12/09 09:43:56;;;;;;;7.63;5.97;;;;;;;;;;5039460;28;20458;-63
2022/12/09 09:46:30;;;;;;;10.83;6.33;;;;;;;;;;5039487;28;20496;-63
2022/12/09 09:48:59;;;;;;;9.63;6.60;;;;;;;;;;5039752;28;20503;-63
2022/12/09 09:51:28;;;;;;;8.67;6.77;;;;;;;;;;5039406;28;20442;-62
2022/12/09 09:53:56;;;;;;;8.00;6.03;;;;;;;;;;5039408;28;20489;-63
2022/12/09 09:56:36;;;;;;;9.50;6.70;;;;;;;;;;5039185;28;20929;-63
2022/12/09 09:59:13;;;;;;;10.57;6.37;;;;;;;;;;5039507;28;20481;-63
2022/12/09 10:01:45;;;;;;;9.97;6.53;;;;;;;;;;5039136;28;20442;-63
2022/12/09 10:04:18;;;;;;;11.00;5.90;;;;;;;;;;5037992;28;20478;-63
2022/12/09 10:06:51;;;;;;;9.70;6.80;;;;;;;;;;5039060;28;20446;-63
2022/12/09 10:09:21;;;;;;;9.27;6.07;;;;;;;;;;5039298;28;20446;-63
2022/12/09 10:12:01;;;;;;;10.17;7.20;;;;;;;;;;5039059;28;20474;-63
2022/12/09 10:14:38;;;;;;;9.03;5.73;;;;;;;;;;5038842;28;20604;-63
2022/12/09 10:17:12;;;;;;;9.47;6.87;;;;;;;;;;5038944;28;20952;-63
2022/12/09 10:19:43;;;;;;;9.37;6.77;;;;;;;;;;5038902;28;20493;-62
2022/12/09 10:22:14;;;;;;;8.47;6.67;;;;;;;;;;5038637;28;20864;-63
2022/12/09 10:24:45;;;;;;;14.47;7.03;;;;;;;;;;5038611;28;20462;-63
2022/12/09 10:27:20;;;;;;;6.20;4.80;;;;;;;;;;5038687;28;20450;-63
2022/12/09 10:29:53;;;;;;;9.67;5.77;;;;;;;;;;5038586;28;20936;-62
2022/12/09 10:32:24;;;;;;;13.63;8.07;;;;;;;;;;5037729;28;20474;-63
2022/12/09 10:34:52;;;;;;;11.10;6.53;;;;;;;;;;5038509;28;20561;-62
2022/12/09 10:37:25;;;;;;;13.23;6.77;;;;;;;;;;5038210;28;20442;-62
2022/12/09 10:39:57;;;;;;;10.57;6.50;;;;;;;;;;5038929;28;20446;-63
2022/12/09 10:45:12;;;;;;;8.37;5.93;;;;;;;;;;5038680;28;20469;-63
2022/12/09 10:47:41;;;;;;;8.43;5.87;;;;;;;;;;5038355;28;20866;-62
2022/12/09 10:50:25;;;;;;;12.17;7.47;;;;;;;;;;5038362;28;20992;-62
2022/12/09 10:52:55;;;;;;;8.60;6.53;;;;;;;;;;5038286;28;20446;-63
2022/12/09 10:55:30;;;;;;;9.50;6.63;;;;;;;;;;5038416;28;20462;-62
2022/12/09 10:58:15;;;;;;;14.30;7.70;;;;;;;;;;5038459;28;20446;-62
2022/12/09 11:00:43;;;;;;;14.50;8.53;;;;;;;;;;5038131;28;20450;-62
2022/12/09 11:03:24;;;;;;;12.23;7.87;;;;;;;;;;5036750;28;20461;-62
2022/12/09 11:05:56;;;;;;;12.37;8.10;;;;;;;;;;5036337;28;20453;-62
2022/12/09 11:08:25;;;;;;;12.27;8.03;;;;;;;;;;5032547;28;20457;-62
2022/12/09 11:10:53;;;;;;;13.40;8.67;;;;;;;;;;5038085;28;20468;-62
2022/12/09 11:13:28;;;;;;;12.27;7.20;;;;;;;;;;5037768;28;20886;-61
2022/12/09 11:16:02;;;;;;;11.73;7.83;;;;;;;;;;5034211;28;20474;-61
2022/12/09 11:18:32;;;;;;;18.03;9.93;;;;;;;;;;5031563;28;20499;-62
2022/12/09 11:21:01;;;;;;;14.00;8.60;;;;;;;;;;5028581;28;20442;-62
2022/12/09 11:23:30;;;;;;;15.17;9.60;;;;;;;;;;5033931;28;20462;-63
2022/12/09 11:25:59;;;;;;;16.27;9.93;;;;;;;;;;5035414;28;21009;-64
2022/12/09 11:28:30;;;;;;;15.47;9.33;;;;;;;;;;5036714;28;20442;-65
2022/12/09 11:30:59;;;;;;;16.13;9.43;;;;;;;;;;5031035;28;20510;-63
2022/12/09 11:33:49;;;;;;;16.13;10.40;;;;;;;;;;5029970;28;20569;-66
2022/12/09 11:36:19;;;;;;;15.07;9.87;;;;;;;;;;5037667;28;20457;-65
2022/12/09 11:38:48;;;;;;;21.47;10.60;;;;;;;;;;5035467;28;20465;-63
2022/12/09 11:44:14;;;;;;;19.13;10.57;;;;;;;;;;5017124;28;20462;-65
2022/12/09 11:46:42;;;;;;;17.50;10.80;;;;;;;;;;5037395;28;20454;-66
2022/12/09 11:49:14;;;;;;;16.27;9.33;;;;;;;;;;5035641;28;20466;-65
2022/12/09 11:51:44;;;;;;;23.20;12.70;;;;;;;;;;5032171;28;20458;-64
2022/12/09 11:54:15;;;;;;;16.53;10.07;;;;;;;;;;5035948;28;20496;-64
2022/12/09 11:56:43;;;;;;;22.03;11.67;;;;;;;;;;5033348;28;20440;-64
2022/12/09 11:59:16;;;;;;;22.37;11.80;;;;;;;;;;5036442;28;20474;-65
2022/12/09 12:01:48;;;;;;;20.03;11.50;;;;;;;;;;5035987;28;20981;-65
2022/12/09 12:04:17;;;;;;;22.17;11.27;;;;;;;;;;5035778;28;20488;-64
2022/12/09 12:06:47;;;;;;;17.97;11.27;;;;;;;;;;5036539;28;20441;-65
2022/12/09 12:09:17;;;;;;;23.40;13.00;;;;;;;;;;5036199;28;20473;-64
2022/12/09 12:11:50;;;;;;;23.63;11.77;;;;;;;;;;5033367;28;20431;-63
2022/12/09 12:14:23;;;;;;;24.93;13.60;;;;;;;;;;5036603;28;20517;-63
2022/12/09 12:16:54;;;;;;;27.33;12.80;;;;;;;;;;5038002;28;20434;-62
2022/12/09 12:19:25;;;;;;;25.53;13.67;;;;;;;;;;5039554;28;20576;-62
2022/12/09 12:22:04;;;;;;;24.37;13.03;;;;;;;;;;5038833;28;20434;-62
2022/12/09 12:24:41;;;;;;;28.87;13.53;;;;;;;;;;5037700;28;20469;-62
2022/12/09 12:27:17;;;;;;;25.23;13.23;;;;;;;;;;5037853;28;20449;-62
2022/12/09 12:29:50;;;;;;;29.03;14.80;;;;;;;;;;5040101;28;20441;-62
2022/12/09 12:32:24;;;;;;;27.77;13.77;;;;;;;;;;5039415;28;20452;-62
2022/12/09 12:35:00;;;;;;;33.33;15.80;;;;;;;;;;5040871;28;20573;-62
2022/12/09 12:37:34;;;;;;;34.00;15.17;;;;;;;;;;5040487;28;20879;-62
2022/12/09 12:40:06;;;;;;;30.93;14.43;;;;;;;;;;5040774;28;20441;-62
2022/12/09 12:46:15;;;;;;;33.67;16.03;;;;;;;;;;5040397;28;20879;-62
2022/12/09 12:48:25;;;;;;;29.93;15.20;;;;;;;;;;5040649;28;20460;-62
2022/12/09 12:51:02;;;;;;;29.03;14.73;;;;;;;;;;5040455;28;20446;-62
2022/12/09 12:53:35;;;;;;;28.43;14.33;;;;;;;;;;5039843;28;20482;-61
2022/12/09 12:56:05;;;;;;;29.87;15.33;;;;;;;;;;5039952;28;20989;-62
2022/12/09 12:58:41;;;;;;;29.30;14.83;;;;;;;;;;5040232;28;20489;-62
2022/12/09 13:01:15;;;;;;;32.43;15.27;;;;;;;;;;5040316;28;20949;-62
2022/12/09 13:03:46;;;;;;;34.83;15.57;;;;;;;;;;5040451;28;20466;-62
2022/12/09 13:06:18;;;;;;;34.90;16.63;;;;;;;;;;5038828;28;20628;-61
2022/12/09 13:08:48;;;;;;;28.53;14.40;;;;;;;;;;5040468;28;20488;-61
2022/12/09 13:11:17;;;;;;;29.53;15.23;;;;;;;;;;5040196;28;20442;-61
2022/12/09 13:13:46;;;;;;;35.00;15.30;;;;;;;;;;5040024;28;20501;-61
2022/12/09 13:16:19;;;;;;;32.37;16.33;;;;;;;;;;5040017;28;20486;-61
2022/12/09 13:18:47;;;;;;;35.20;15.60;;;;;;;;;;5039984;28;20937;-61
2022/12/09 13:21:16;;;;;;;29.87;15.90;;;;;;;;;;5039628;28;21028;-62
2022/12/09 13:23:50;;;;;;;33.80;15.70;;;;;;;;;;5040011;28;20466;-62
2022/12/09 13:26:24;;;;;;;38.60;16.20;;;;;;;;;;5027235;28;20524;-61
2022/12/09 13:28:56;;;;;;;31.87;15.10;;;;;;;;;;5040069;28;20537;-61
2022/12/09 13:31:29;;;;;;;35.90;16.13;;;;;;;;;;5040063;28;20481;-61
2022/12/09 13:34:02;;;;;;;35.80;16.20;;;;;;;;;;5039607;28;20543;-61
2022/12/09 13:36:36;;;;;;;36.80;16.27;;;;;;;;;;5039315;28;20967;-61
2022/12/09 13:39:04;;;;;;;38.23;17.40;;;;;;;;;;5039639;28;20449;-61
2022/12/09 13:44:28;;;;;;;35.70;15.70;;;;;;;;;;5039728;28;20473;-62
2022/12/09 13:47:11;;;;;;;37.80;16.03;;;;;;;;;;5039331;28;20450;-62
2022/12/09 13:49:40;;;;;;;32.80;16.03;;;;;;;;;;5039209;28;20449;-62
2022/12/09 13:52:08;;;;;;;34.30;15.97;;;;;;;;;;5039075;28;20470;-61
2022/12/09 13:54:47;;;;;;;29.43;15.20;;;;;;;;;;5038190;28;20514;-62
2022/12/09 13:57:20;;;;;;;33.43;15.77;;;;;;;;;;5038244;28;20549;-62
2022/12/09 13:59:50;;;;;;;31.27;15.30;;;;;;;;;;5039147;28;20492;-62
2022/12/09 14:02:23;;;;;;;29.23;16.53;;;;;;;;;;5039148;28;20482;-61
2022/12/09 14:04:58;;;;;;;37.53;16.47;;;;;;;;;;5037944;28;20478;-62
2022/12/09 14:07:31;;;;;;;33.93;14.80;;;;;;;;;;5038658;28;20840;-62
2022/12/09 14:09:59;;;;;;;40.73;17.33;;;;;;;;;;5039184;28;20442;-62
2022/12/09 14:12:46;;;;;;;32.53;15.77;;;;;;;;;;5038832;28;20537;-62
2022/12/09 14:15:29;;;;;;;32.23;15.57;;;;;;;;;;5039067;28;20486;-62
2022/12/09 14:17:59;;;;;;;34.33;16.27;;;;;;;;;;5038642;28;20507;-62
2022/12/09 14:20:30;;;;;;;37.27;16.67;;;;;;;;;;5039055;28;20474;-62
2022/12/09 14:23:15;;;;;;;30.33;16.03;;;;;;;;;;5038797;28;20446;-62
2022/12/09 14:25:45;;;;;;;34.83;16.53;;;;;;;;;;5038816;28;20492;-62
2022/12/09 14:28:25;;;;;;;35.43;17.13;;;;;;;;;;5037574;28;20460;-62
2022/12/09 14:30:54;;;;;;;39.10;18.63;;;;;;;;;;5038707;28;20446;-62
2022/12/09 14:33:24;;;;;;;35.70;17.53;;;;;;;;;;5038608;28;20439;-62
2022/12/09 14:35:56;;;;;;;35.27;16.30;;;;;;;;;;5038392;28;20482;-62
2022/12/09 14:38:27;;;;;;;37.20;18.00;;;;;;;;;;5037815;28;20525;-62
2022/12/09 14:40:58;;;;;;;30.53;15.63;;;;;;;;;;5038417;28;20474;-62
2022/12/09 14:43:40;;;;;;;35.63;17.50;;;;;;;;;;5038524;28;20496;-63
2022/12/09 14:46:22;;;;;;;33.17;17.67;;;;;;;;;;5029967;28;20983;-62
2022/12/09 14:48:53;;;;;;;32.57;15.37;;;;;;;;;;5035345;28;20802;-63
2022/12/09 14:51:25;;;;;;;37.47;16.47;;;;;;;;;;5027797;28;20479;-63
2022/12/09 14:53:55;;;;;;;31.53;15.57;;;;;;;;;;5029420;28;20856;-63
2022/12/09 14:56:24;;;;;;;32.23;16.10;;;;;;;;;;5037136;28;20493;-63
2022/12/09 14:58:54;;;;;;;32.87;17.47;;;;;;;;;;5025304;28;20450;-62